New Canton, Illinois
Current Conditions -  °F | °C
As of 2:15 AM on Monday 26 Jan 2015 (Local Time) from KPPQ Reporting Station
Clear Clear  
Wind Chill: 20°   Ceiling: Unl
Heat Index: 26°   Visibility: 10mi
Dew Point: 23°   Wind: 6mph
Humidity: 87%   Direction: 310°NW
Pressure: 30.06"   Gusts: NA
Location:  39.64°N, 91.1°W
Report Text: KPPQ 260815Z AUTO 31005KT 10SM CLR M03/M05 A3006 RMK AO2 T10321051
Loading
Personal Weather Stations






























Interactive Weather Map New forecast layout! Learn more

10-Day Weather Forecast

Advertisements
Track Severe Weather on mobile